createdAt,value
2019-04-11T03:15:28.729Z,26.87
2019-04-11T03:17:46.147Z,31.33
2019-04-11T03:20:23.950Z,34.77
2019-04-11T03:22:54.154Z,26.53
2019-04-11T03:25:17.743Z,29.10
2019-04-11T03:27:47.445Z,24.63
2019-04-11T03:30:23.957Z,25.57
2019-04-11T03:33:50.225Z,22.00
2019-04-11T03:38:17.474Z,24.60
2019-04-11T03:40:36.548Z,24.07
2019-04-11T03:43:06.126Z,24.10
2019-04-11T03:45:43.451Z,28.13
2019-04-11T03:48:11.029Z,26.30
2019-04-11T03:50:27.995Z,27.13
2019-04-11T03:52:56.322Z,26.83
2019-04-11T03:55:28.409Z,19.03
2019-04-11T03:57:59.223Z,27.90
2019-04-11T04:00:35.436Z,28.50
2019-04-11T04:03:01.385Z,28.10
2019-04-11T04:05:34.045Z,35.53
2019-04-11T04:08:03.854Z,26.10
2019-04-11T04:10:34.049Z,24.33
2019-04-11T04:13:05.376Z,20.70
2019-04-11T04:16:00.273Z,23.20
2019-04-11T04:18:45.780Z,27.17
2019-04-11T04:21:33.257Z,22.27
2019-04-11T04:24:04.083Z,24.50
2019-04-11T04:26:35.465Z,23.13
2019-04-11T04:29:07.509Z,24.00
2019-04-11T04:31:38.553Z,34.23
2019-04-11T04:34:09.398Z,23.30
2019-04-11T04:36:40.314Z,27.70
2019-04-11T04:39:10.676Z,25.47
2019-04-11T04:41:51.919Z,20.97
2019-04-11T04:44:12.662Z,19.80
2019-04-11T04:46:55.559Z,25.57
2019-04-11T04:49:13.210Z,20.30
2019-04-11T04:51:43.698Z,27.43
2019-04-11T04:54:14.199Z,24.70
2019-04-11T04:56:45.324Z,22.40
2019-04-11T04:59:16.187Z,30.27
2019-04-11T05:01:46.331Z,23.83
2019-04-11T05:04:16.306Z,21.53
2019-04-11T05:06:48.170Z,22.43
2019-04-11T05:09:16.096Z,19.60
2019-04-11T05:11:46.524Z,24.70
2019-04-11T05:14:16.369Z,24.43
2019-04-11T05:16:46.114Z,24.97
2019-04-11T05:19:15.210Z,26.20
2019-04-11T05:21:44.135Z,22.13
2019-04-11T05:24:13.120Z,21.50
2019-04-11T05:26:42.178Z,24.80
2019-04-11T05:29:11.225Z,27.40
2019-04-11T05:31:41.363Z,24.50
2019-04-11T05:34:10.400Z,22.13
2019-04-11T05:36:39.323Z,25.57
2019-04-11T05:39:08.863Z,24.93
2019-04-11T05:41:41.771Z,28.57
2019-04-11T05:44:10.873Z,33.50
2019-04-11T05:46:48.918Z,23.87
2019-04-11T05:49:20.240Z,22.13
2019-04-11T05:51:58.616Z,25.63
2019-04-11T05:54:30.654Z,22.27
2019-04-11T05:57:01.313Z,23.73
2019-04-11T05:59:30.701Z,22.60
2019-04-11T06:02:09.272Z,26.67
2019-04-11T06:04:42.817Z,30.00
2019-04-11T06:07:40.036Z,33.37
2019-04-11T06:10:12.820Z,28.47
2019-04-11T06:13:10.070Z,26.97
2019-04-11T06:15:43.968Z,30.30
2019-04-11T06:18:35.346Z,39.10
2019-04-11T06:21:09.509Z,21.60
2019-04-11T06:24:14.087Z,25.37
2019-04-11T06:27:02.352Z,29.43
2019-04-11T06:29:39.326Z,22.23
2019-04-11T06:32:26.003Z,20.77
2019-04-11T06:34:59.958Z,21.70
2019-04-11T06:38:00.702Z,27.63
2019-04-11T06:40:35.004Z,26.17
2019-04-11T06:43:28.877Z,24.77
2019-04-11T06:46:31.941Z,19.67
2019-04-11T06:49:28.920Z,25.70
2019-04-11T06:52:00.370Z,23.17
2019-04-11T06:54:52.460Z,26.40
2019-04-11T06:57:23.624Z,30.30
2019-04-11T06:59:52.838Z,24.80
2019-04-11T07:02:24.516Z,23.43
2019-04-11T07:04:55.527Z,22.23
2019-04-11T07:07:28.530Z,23.90
2019-04-11T07:10:04.579Z,26.73
2019-04-11T07:13:11.851Z,25.63
2019-04-11T07:15:50.530Z,23.53
2019-04-11T07:18:37.818Z,28.73
2019-04-11T07:21:09.011Z,23.40
2019-04-11T07:23:56.021Z,30.63
2019-04-11T07:26:42.167Z,23.00
2019-04-11T07:29:31.432Z,23.07
2019-04-11T07:32:18.150Z,24.53
2019-04-11T07:35:05.286Z,21.80
2019-04-11T07:37:38.910Z,29.57
2019-04-11T07:40:29.435Z,27.63
2019-04-11T07:43:13.552Z,27.93
2019-04-11T07:46:00.305Z,22.90
2019-04-11T07:48:40.403Z,24.50
2019-04-11T07:51:17.903Z,26.23
2019-04-11T07:53:50.158Z,26.10
2019-04-11T07:56:54.967Z,22.93
2019-04-11T07:59:39.692Z,21.13
2019-04-11T08:02:37.710Z,25.37
2019-04-11T08:05:36.657Z,24.63
2019-04-11T08:08:32.294Z,26.53
2019-04-11T08:11:20.661Z,24.73
2019-04-11T08:14:10.484Z,25.23
2019-04-11T08:16:59.971Z,26.67
2019-04-11T08:19:46.915Z,24.47
2019-04-11T08:22:21.327Z,23.17
2019-04-11T08:25:13.997Z,21.50
2019-04-11T08:27:58.305Z,24.40
2019-04-11T08:30:26.663Z,22.63
2019-04-11T08:32:58.281Z,28.63
2019-04-11T08:35:46.548Z,28.07
2019-04-11T08:38:18.631Z,22.00
2019-04-11T08:40:55.731Z,27.37
2019-04-11T08:43:27.091Z,26.80
2019-04-11T08:46:00.390Z,33.50
2019-04-11T08:48:30.824Z,28.30
2019-04-11T08:51:05.072Z,22.80
2019-04-11T08:53:53.083Z,27.07
2019-04-11T08:56:23.078Z,24.70
2019-04-11T08:59:43.986Z,22.97
2019-04-11T09:02:37.300Z,23.27
2019-04-11T09:05:27.353Z,28.80
2019-04-11T09:08:16.375Z,29.63
2019-04-11T09:11:17.446Z,26.80
2019-04-11T09:14:17.903Z,31.80
2019-04-11T09:16:59.205Z,31.87
2019-04-11T09:19:51.454Z,24.80
2019-04-11T09:22:31.777Z,31.20
2019-04-11T09:25:30.389Z,30.03
2019-04-11T09:28:25.194Z,32.70
2019-04-11T09:31:13.234Z,33.00
2019-04-11T09:33:59.850Z,27.23
2019-04-11T09:36:45.490Z,30.73
2019-04-11T09:39:21.391Z,32.33
2019-04-11T09:42:03.298Z,27.80
2019-04-11T09:44:49.147Z,25.67
2019-04-11T09:47:36.281Z,27.57
2019-04-11T09:50:07.938Z,28.47
2019-04-11T09:52:42.015Z,30.47
2019-04-11T09:55:25.705Z,32.53
2019-04-11T09:57:58.635Z,30.77
2019-04-11T10:00:47.375Z,34.10
2019-04-11T10:03:25.674Z,28.67
2019-04-11T10:06:23.830Z,28.17
2019-04-11T10:08:56.030Z,32.20
2019-04-11T10:11:59.159Z,27.60
2019-04-11T10:14:29.836Z,29.80
2019-04-11T10:17:16.949Z,30.00
2019-04-11T10:19:54.326Z,26.90
2019-04-11T10:22:43.792Z,27.70
2019-04-11T10:25:16.867Z,31.20
2019-04-11T10:28:04.892Z,30.93
2019-04-11T10:30:55.896Z,30.87
2019-04-11T10:33:44.885Z,30.00
2019-04-11T10:36:39.235Z,26.93
2019-04-11T10:39:29.063Z,33.33
2019-04-11T10:42:04.330Z,53.03
2019-04-11T10:44:42.311Z,40.73
2019-04-11T10:47:17.583Z,38.13
2019-04-11T10:50:21.715Z,29.10
2019-04-11T10:53:02.597Z,33.10
2019-04-11T10:56:02.663Z,30.13
2019-04-11T10:58:37.163Z,31.60
2019-04-11T11:01:24.988Z,31.20
2019-04-11T11:04:32.586Z,27.70
2019-04-11T11:07:09.698Z,27.37
2019-04-11T11:09:46.325Z,33.53
2019-04-11T11:12:35.151Z,33.60
2019-04-11T11:15:09.893Z,32.07
2019-04-11T11:18:35.109Z,29.63
2019-04-11T11:20:59.260Z,32.13
2019-04-11T11:23:45.410Z,34.77
2019-04-11T11:26:24.250Z,29.53
2019-04-11T11:29:15.218Z,27.03
2019-04-11T11:31:56.472Z,28.47
2019-04-11T11:34:48.991Z,29.77
2019-04-11T11:37:33.564Z,33.53
2019-04-11T11:40:21.916Z,31.90
2019-04-11T11:43:19.104Z,33.80
2019-04-11T11:46:14.071Z,31.67
2019-04-11T11:48:48.860Z,31.27
2019-04-11T11:51:23.875Z,36.00
2019-04-11T11:54:13.633Z,32.80
2019-04-11T11:56:44.428Z,30.90
2019-04-11T11:59:36.485Z,34.33
2019-04-11T12:02:15.779Z,32.23
2019-04-11T12:04:52.629Z,32.60
2019-04-11T12:07:26.234Z,32.13
2019-04-11T12:10:13.397Z,35.60
2019-04-11T12:12:56.940Z,33.13
2019-04-11T12:15:43.742Z,35.33
2019-04-11T12:18:32.933Z,37.47
2019-04-11T12:21:05.144Z,32.73
2019-04-11T12:23:58.115Z,33.37
2019-04-11T12:26:22.112Z,36.83
2019-04-11T12:29:08.833Z,38.67
2019-04-11T12:31:40.379Z,43.00
2019-04-11T12:34:28.447Z,38.57
2019-04-11T12:36:57.898Z,56.47
2019-04-11T12:40:04.495Z,40.17
2019-04-11T12:42:36.326Z,34.57
2019-04-11T12:45:42.769Z,35.40
2019-04-11T12:48:12.215Z,40.07
2019-04-11T12:50:59.092Z,36.60
2019-04-11T12:53:28.436Z,36.93
2019-04-11T12:56:08.455Z,38.10
2019-04-11T12:58:42.797Z,37.83
2019-04-11T13:01:33.399Z,51.80
2019-04-11T13:04:18.655Z,41.37
2019-04-11T13:07:00.690Z,39.37
2019-04-11T13:09:57.994Z,46.83
2019-04-11T13:12:35.388Z,41.33
2019-04-11T13:15:26.581Z,39.93
2019-04-11T13:18:02.911Z,40.63
2019-04-11T13:20:54.942Z,47.60
2019-04-11T13:23:32.343Z,43.07
2019-04-11T13:26:16.974Z,38.23
2019-04-11T13:28:47.698Z,48.53
2019-04-11T13:31:34.447Z,45.30
2019-04-11T13:34:05.106Z,43.90
2019-04-11T13:36:51.670Z,52.20
2019-04-11T13:39:20.807Z,47.07
2019-04-11T13:42:07.405Z,46.63
2019-04-11T13:44:38.768Z,49.83
2019-04-11T13:47:25.430Z,45.37
2019-04-11T13:49:56.879Z,46.63
2019-04-11T13:52:45.074Z,49.70
2019-04-11T13:55:31.853Z,51.13
2019-04-11T13:58:18.538Z,51.10
2019-04-11T14:00:49.110Z,49.90
2019-04-11T14:03:49.419Z,56.53
2019-04-11T14:06:33.139Z,48.43
2019-04-11T14:09:24.059Z,44.87
2019-04-11T14:12:15.850Z,58.50
2019-04-11T14:14:48.075Z,50.77
2019-04-11T14:17:36.183Z,46.13
2019-04-11T14:20:29.792Z,47.33
2019-04-11T14:23:14.867Z,45.03
2019-04-11T14:26:07.148Z,54.50
2019-04-11T14:28:39.822Z,49.03
2019-04-11T14:31:22.272Z,47.80
2019-04-11T14:33:55.981Z,61.80
2019-04-11T14:36:43.451Z,50.03
2019-04-11T14:39:14.551Z,58.13
2019-04-11T14:42:02.691Z,49.77
2019-04-11T14:44:32.191Z,48.27
2019-04-11T14:47:19.634Z,52.63
2019-04-11T14:49:52.390Z,50.20
2019-04-11T14:52:46.518Z,52.83
2019-04-11T14:55:14.518Z,50.43
2019-04-11T14:57:53.845Z,55.60
2019-04-11T15:00:27.062Z,51.70
2019-04-11T15:03:24.498Z,48.20
2019-04-11T15:06:09.773Z,56.93
2019-04-11T15:08:58.947Z,49.60
2019-04-11T15:11:41.649Z,51.33
2019-04-11T15:14:20.738Z,48.43
2019-04-11T15:17:09.991Z,50.83
2019-04-11T15:19:39.410Z,46.77
2019-04-11T15:22:26.929Z,50.03
2019-04-11T15:25:00.794Z,49.37
2019-04-11T15:27:47.627Z,61.73
2019-04-11T15:30:18.055Z,51.00
2019-04-11T15:33:05.158Z,55.23
2019-04-11T15:35:34.311Z,50.73
2019-04-11T15:38:21.290Z,48.10
2019-04-11T15:40:54.139Z,57.47
2019-04-11T15:43:43.287Z,50.30
2019-04-11T15:46:17.594Z,60.30
2019-04-11T15:49:05.976Z,52.83
2019-04-11T15:51:42.614Z,56.90
2019-04-11T15:54:30.875Z,55.43
2019-04-11T15:57:12.227Z,51.57
2019-04-11T15:59:59.440Z,53.43
2019-04-11T16:02:53.344Z,54.53
2019-04-11T16:05:47.258Z,56.07
2019-04-11T16:08:41.877Z,47.47
2019-04-11T16:11:27.883Z,44.53
2019-04-11T16:14:05.320Z,46.83
2019-04-11T16:17:02.662Z,50.60
2019-04-11T16:19:47.621Z,55.50
2019-04-11T16:22:32.317Z,53.70
2019-04-11T16:25:04.086Z,50.77
2019-04-11T16:28:01.349Z,49.93
2019-04-11T16:30:31.069Z,45.53
2019-04-11T16:33:19.146Z,55.03
2019-04-11T16:36:00.950Z,50.10
2019-04-11T16:38:32.094Z,54.17
2019-04-11T16:41:18.587Z,52.70
2019-04-11T16:43:54.675Z,52.47
2019-04-11T16:46:49.926Z,56.90
2019-04-11T16:49:18.913Z,52.40
2019-04-11T16:51:47.898Z,51.60
2019-04-11T16:54:16.803Z,46.67
2019-04-11T16:56:45.749Z,58.23
2019-04-11T16:59:14.756Z,57.53
2019-04-11T17:01:43.738Z,56.93
2019-04-11T17:04:12.687Z,48.50
2019-04-11T17:07:10.610Z,48.77
2019-04-11T17:09:42.971Z,59.27
2019-04-11T17:12:11.975Z,50.17
2019-04-11T17:14:41.033Z,49.87
2019-04-11T17:17:15.251Z,46.53
2019-04-11T17:19:40.946Z,51.30
2019-04-11T17:22:10.009Z,49.07
2019-04-11T17:24:39.029Z,47.03
2019-04-11T17:27:08.036Z,42.70
2019-04-11T17:29:37.238Z,59.33
2019-04-11T17:32:06.352Z,56.47
2019-04-11T17:34:35.539Z,45.90
2019-04-11T17:37:04.542Z,49.10
2019-04-11T17:39:36.414Z,44.17
2019-04-11T17:42:04.391Z,55.83
2019-04-11T17:44:33.803Z,51.83
2019-04-11T17:47:02.842Z,45.77
2019-04-11T17:49:31.958Z,52.27
2019-04-11T17:52:04.964Z,48.13
2019-04-11T17:54:32.187Z,51.80
2019-04-11T17:57:01.147Z,56.83
2019-04-11T17:59:30.209Z,52.53
2019-04-11T18:01:59.377Z,46.27
2019-04-11T18:04:28.327Z,44.30
2019-04-11T18:06:57.326Z,42.90
2019-04-11T18:09:26.612Z,56.77
2019-04-11T18:11:56.237Z,39.90
2019-04-11T18:14:25.874Z,42.33
2019-04-11T18:16:54.798Z,42.80
2019-04-11T18:19:23.970Z,46.03
2019-04-11T18:21:53.044Z,44.87
2019-04-11T18:24:22.147Z,38.70
2019-04-11T18:26:51.950Z,41.73
2019-04-11T18:29:23.045Z,37.97
2019-04-11T18:31:52.248Z,39.80
2019-04-11T18:34:21.501Z,39.17
2019-04-11T18:36:50.485Z,37.40
2019-04-11T18:39:20.074Z,37.80
2019-04-11T18:41:49.105Z,36.90
2019-04-11T18:44:18.754Z,38.80
2019-04-11T18:46:48.003Z,38.57
2019-04-11T18:49:19.483Z,32.97
2019-04-11T18:51:48.482Z,38.67
2019-04-11T18:54:17.566Z,35.57
2019-04-11T18:56:46.568Z,36.63
2019-04-11T18:59:15.744Z,34.83
2019-04-11T19:01:44.670Z,37.33
2019-04-11T19:04:13.811Z,35.10
2019-04-11T19:06:43.597Z,35.37
2019-04-11T19:09:14.824Z,40.40
2019-04-11T19:11:46.240Z,34.27
2019-04-11T19:14:16.142Z,39.70
2019-04-11T19:16:46.744Z,32.13
2019-04-11T19:19:18.565Z,41.17
2019-04-11T19:21:50.727Z,38.10
2019-04-11T19:24:18.048Z,35.23
2019-04-11T19:26:47.206Z,34.13
2019-04-11T19:29:16.191Z,33.43
2019-04-11T19:31:45.259Z,39.63
2019-04-11T19:34:14.331Z,31.53
2019-04-11T19:36:43.549Z,41.13
2019-04-11T19:39:13.940Z,35.60
2019-04-11T19:41:47.822Z,37.70
2019-04-11T19:44:16.845Z,34.50
2019-04-11T19:46:48.474Z,41.87
2019-04-11T19:49:17.539Z,32.87
2019-04-11T19:51:46.831Z,35.33
2019-04-11T19:54:15.867Z,36.13
2019-04-11T19:56:52.090Z,31.00
2019-04-11T19:59:21.079Z,34.13
2019-04-11T20:01:50.787Z,38.23
2019-04-11T20:04:23.656Z,29.53
2019-04-11T20:06:51.555Z,34.67
2019-04-11T20:09:20.534Z,37.20
2019-04-11T20:11:49.544Z,34.50
2019-04-11T20:14:18.530Z,33.47
2019-04-11T20:16:49.044Z,27.70
2019-04-11T20:19:18.252Z,33.27
2019-04-11T20:21:47.330Z,37.23
2019-04-11T20:24:16.282Z,31.03
2019-04-11T20:26:45.347Z,34.43
2019-04-11T20:29:14.389Z,33.00
2019-04-11T20:31:43.382Z,32.27
2019-04-11T20:34:12.311Z,29.03
2019-04-11T20:36:41.868Z,34.67
2019-04-11T20:39:14.902Z,28.03
2019-04-11T20:41:41.683Z,34.20
2019-04-11T20:44:10.723Z,30.83
2019-04-11T20:46:39.797Z,34.53
2019-04-11T20:49:08.846Z,33.57
2019-04-11T20:51:37.807Z,36.20
2019-04-11T20:54:07.824Z,33.43
2019-04-11T20:56:39.857Z,31.27
2019-04-11T20:59:10.048Z,32.07
2019-04-11T21:01:38.413Z,35.37
2019-04-11T21:04:07.340Z,31.63
2019-04-11T21:06:36.415Z,33.73
2019-04-11T21:09:09.036Z,29.47
2019-04-11T21:11:38.014Z,32.40
2019-04-11T21:14:07.106Z,28.20
2019-04-11T21:16:36.027Z,28.13
2019-04-11T21:19:06.990Z,26.50
2019-04-11T21:21:36.127Z,28.00
2019-04-11T21:24:05.200Z,35.20
2019-04-11T21:26:34.181Z,27.53
2019-04-11T21:29:03.125Z,31.13
2019-04-11T21:31:32.110Z,28.47
2019-04-11T21:34:02.271Z,35.70
2019-04-11T21:36:32.280Z,34.93
2019-04-11T21:39:03.534Z,27.80
2019-04-11T21:41:36.090Z,28.10
2019-04-11T21:44:05.835Z,27.30
2019-04-11T21:46:37.307Z,31.17
2019-04-11T21:49:06.401Z,32.97
2019-04-11T21:51:34.863Z,25.80
2019-04-11T21:54:03.849Z,29.47
2019-04-11T21:56:32.863Z,29.30
2019-04-11T21:59:01.938Z,25.77
2019-04-11T22:01:31.978Z,30.27
2019-04-11T22:04:01.079Z,32.40
2019-04-11T22:06:30.535Z,28.17
2019-04-11T22:09:00.350Z,31.20
2019-04-11T22:11:29.540Z,31.07
2019-04-11T22:13:58.629Z,31.27
2019-04-11T22:16:27.691Z,35.63
2019-04-11T22:18:56.691Z,28.43
2019-04-11T22:21:25.682Z,34.80
2019-04-11T22:23:54.647Z,29.33
2019-04-11T22:26:23.556Z,28.67
2019-04-11T22:28:54.941Z,27.93
